sensor_id;sensor_type;location;lat;lon;timestamp;P1;durP1;ratioP1;P2;durP2;ratioP2
18505;SDS011;9382;53.242;10.438;2023-08-07T00:00:28;4.17;;;3.00;;
18505;SDS011;9382;53.242;10.438;2023-08-07T00:02:54;3.63;;;3.27;;
18505;SDS011;9382;53.242;10.438;2023-08-07T00:05:21;3.50;;;3.10;;
18505;SDS011;9382;53.242;10.438;2023-08-07T00:07:48;3.10;;;2.80;;
18505;SDS011;9382;53.242;10.438;2023-08-07T00:10:15;6.27;;;3.63;;
18505;SDS011;9382;53.242;10.438;2023-08-07T00:12:42;3.93;;;3.30;;
18505;SDS011;9382;53.242;10.438;2023-08-07T00:15:10;5.47;;;3.30;;
18505;SDS011;9382;53.242;10.438;2023-08-07T00:17:37;3.40;;;3.10;;
18505;SDS011;9382;53.242;10.438;2023-08-07T00:20:05;4.30;;;2.87;;
18505;SDS011;9382;53.242;10.438;2023-08-07T00:22:32;6.20;;;3.27;;
18505;SDS011;9382;53.242;10.438;2023-08-07T00:24:59;5.00;;;3.57;;
18505;SDS011;9382;53.242;10.438;2023-08-07T00:27:26;4.23;;;3.00;;
18505;SDS011;9382;53.242;10.438;2023-08-07T00:29:53;5.70;;;3.67;;
18505;SDS011;9382;53.242;10.438;2023-08-07T00:32:21;4.47;;;3.50;;
18505;SDS011;9382;53.242;10.438;2023-08-07T00:34:47;3.97;;;3.03;;
18505;SDS011;9382;53.242;10.438;2023-08-07T00:37:14;4.13;;;3.00;;
18505;SDS011;9382;53.242;10.438;2023-08-07T00:39:41;5.37;;;3.50;;
18505;SDS011;9382;53.242;10.438;2023-08-07T00:42:08;4.50;;;3.30;;
18505;SDS011;9382;53.242;10.438;2023-08-07T00:44:34;4.03;;;2.93;;
18505;SDS011;9382;53.242;10.438;2023-08-07T00:47:01;3.83;;;3.00;;
18505;SDS011;9382;53.242;10.438;2023-08-07T00:49:30;3.63;;;3.10;;
18505;SDS011;9382;53.242;10.438;2023-08-07T00:51:56;5.33;;;3.27;;
18505;SDS011;9382;53.242;10.438;2023-08-07T00:54:23;3.30;;;3.00;;
18505;SDS011;9382;53.242;10.438;2023-08-07T00:56:51;3.27;;;3.00;;
18505;SDS011;9382;53.242;10.438;2023-08-07T00:59:18;4.10;;;3.30;;
18505;SDS011;9382;53.242;10.438;2023-08-07T01:01:45;4.50;;;2.83;;
18505;SDS011;9382;53.242;10.438;2023-08-07T01:04:12;2.77;;;2.57;;
18505;SDS011;9382;53.242;10.438;2023-08-07T01:06:40;3.70;;;2.80;;
18505;SDS011;9382;53.242;10.438;2023-08-07T01:09:07;3.17;;;2.80;;
18505;SDS011;9382;53.242;10.438;2023-08-07T01:11:34;2.70;;;2.50;;
18505;SDS011;9382;53.242;10.438;2023-08-07T01:14:13;3.37;;;2.97;;
18505;SDS011;9382;53.242;10.438;2023-08-07T01:16:46;3.90;;;2.53;;
18505;SDS011;9382;53.242;10.438;2023-08-07T01:19:19;6.20;;;3.10;;
18505;SDS011;9382;53.242;10.438;2023-08-07T01:21:56;3.27;;;2.80;;
18505;SDS011;9382;53.242;10.438;2023-08-07T01:24:30;3.17;;;2.87;;
18505;SDS011;9382;53.242;10.438;2023-08-07T01:26:57;3.03;;;2.83;;
18505;SDS011;9382;53.242;10.438;2023-08-07T01:29:33;3.50;;;3.20;;
18505;SDS011;9382;53.242;10.438;2023-08-07T01:32:04;3.00;;;2.80;;
18505;SDS011;9382;53.242;10.438;2023-08-07T01:34:34;3.47;;;3.17;;
18505;SDS011;9382;53.242;10.438;2023-08-07T01:37:04;3.53;;;3.10;;
18505;SDS011;9382;53.242;10.438;2023-08-07T01:39:32;4.77;;;3.27;;
18505;SDS011;9382;53.242;10.438;2023-08-07T01:42:02;5.50;;;3.00;;
18505;SDS011;9382;53.242;10.438;2023-08-07T01:44:29;4.67;;;3.00;;
18505;SDS011;9382;53.242;10.438;2023-08-07T01:46:56;4.37;;;3.10;;
18505;SDS011;9382;53.242;10.438;2023-08-07T01:49:23;5.00;;;2.77;;
18505;SDS011;9382;53.242;10.438;2023-08-07T01:51:50;5.00;;;3.00;;
18505;SDS011;9382;53.242;10.438;2023-08-07T01:54:18;3.03;;;2.77;;
18505;SDS011;9382;53.242;10.438;2023-08-07T01:56:45;4.20;;;3.10;;
18505;SDS011;9382;53.242;10.438;2023-08-07T01:59:12;2.70;;;2.50;;
18505;SDS011;9382;53.242;10.438;2023-08-07T02:01:38;4.63;;;2.83;;
18505;SDS011;9382;53.242;10.438;2023-08-07T02:04:05;3.00;;;2.80;;
18505;SDS011;9382;53.242;10.438;2023-08-07T02:06:32;4.67;;;2.87;;
18505;SDS011;9382;53.242;10.438;2023-08-07T02:08:58;3.33;;;2.93;;
18505;SDS011;9382;53.242;10.438;2023-08-07T02:11:27;4.57;;;3.27;;
18505;SDS011;9382;53.242;10.438;2023-08-07T02:13:53;3.63;;;2.90;;
18505;SDS011;9382;53.242;10.438;2023-08-07T02:16:20;2.77;;;2.43;;
18505;SDS011;9382;53.242;10.438;2023-08-07T02:18:47;3.00;;;2.70;;
18505;SDS011;9382;53.242;10.438;2023-08-07T02:21:13;3.53;;;2.80;;
18505;SDS011;9382;53.242;10.438;2023-08-07T02:23:40;5.63;;;3.07;;
18505;SDS011;9382;53.242;10.438;2023-08-07T02:26:07;3.00;;;2.50;;
18505;SDS011;9382;53.242;10.438;2023-08-07T02:28:35;3.77;;;2.90;;
18505;SDS011;9382;53.242;10.438;2023-08-07T02:31:02;2.97;;;2.70;;
18505;SDS011;9382;53.242;10.438;2023-08-07T02:33:29;3.23;;;2.70;;
18505;SDS011;9382;53.242;10.438;2023-08-07T02:35:56;3.50;;;3.20;;
18505;SDS011;9382;53.242;10.438;2023-08-07T02:38:23;3.57;;;2.57;;
18505;SDS011;9382;53.242;10.438;2023-08-07T02:40:50;2.90;;;2.60;;
18505;SDS011;9382;53.242;10.438;2023-08-07T02:43:17;3.57;;;2.70;;
18505;SDS011;9382;53.242;10.438;2023-08-07T02:45:46;2.60;;;2.40;;
18505;SDS011;9382;53.242;10.438;2023-08-07T02:48:13;3.87;;;2.63;;
18505;SDS011;9382;53.242;10.438;2023-08-07T02:50:40;3.23;;;2.90;;
18505;SDS011;9382;53.242;10.438;2023-08-07T02:53:06;2.83;;;2.63;;
18505;SDS011;9382;53.242;10.438;2023-08-07T02:55:33;5.67;;;3.10;;
18505;SDS011;9382;53.242;10.438;2023-08-07T02:58:00;3.00;;;2.70;;
18505;SDS011;9382;53.242;10.438;2023-08-07T03:00:27;3.17;;;2.77;;
18505;SDS011;9382;53.242;10.438;2023-08-07T03:02:55;2.73;;;2.53;;
18505;SDS011;9382;53.242;10.438;2023-08-07T03:05:21;3.13;;;2.87;;
18505;SDS011;9382;53.242;10.438;2023-08-07T03:07:48;3.10;;;2.70;;
18505;SDS011;9382;53.242;10.438;2023-08-07T03:10:15;3.17;;;2.80;;
18505;SDS011;9382;53.242;10.438;2023-08-07T03:12:42;3.53;;;2.97;;
18505;SDS011;9382;53.242;10.438;2023-08-07T03:15:09;3.60;;;2.40;;
18505;SDS011;9382;53.242;10.438;2023-08-07T03:17:36;5.10;;;2.90;;
18505;SDS011;9382;53.242;10.438;2023-08-07T03:20:04;4.23;;;2.50;;
18505;SDS011;9382;53.242;10.438;2023-08-07T03:22:31;3.10;;;2.90;;
18505;SDS011;9382;53.242;10.438;2023-08-07T03:24:58;3.80;;;2.83;;
18505;SDS011;9382;53.242;10.438;2023-08-07T03:27:25;2.60;;;2.40;;
18505;SDS011;9382;53.242;10.438;2023-08-07T03:29:52;5.83;;;2.80;;
18505;SDS011;9382;53.242;10.438;2023-08-07T03:32:18;2.70;;;2.50;;
18505;SDS011;9382;53.242;10.438;2023-08-07T03:34:45;3.20;;;2.90;;
18505;SDS011;9382;53.242;10.438;2023-08-07T03:37:13;2.63;;;2.30;;
18505;SDS011;9382;53.242;10.438;2023-08-07T03:39:40;2.67;;;2.47;;
18505;SDS011;9382;53.242;10.438;2023-08-07T03:42:08;3.07;;;2.33;;
18505;SDS011;9382;53.242;10.438;2023-08-07T03:44:35;3.53;;;2.50;;
18505;SDS011;9382;53.242;10.438;2023-08-07T03:47:02;2.73;;;2.47;;
18505;SDS011;9382;53.242;10.438;2023-08-07T03:49:29;2.40;;;2.30;;
18505;SDS011;9382;53.242;10.438;2023-08-07T03:51:56;4.13;;;2.63;;
18505;SDS011;9382;53.242;10.438;2023-08-07T03:54:25;3.60;;;2.37;;
18505;SDS011;9382;53.242;10.438;2023-08-07T03:56:52;3.07;;;2.57;;
18505;SDS011;9382;53.242;10.438;2023-08-07T03:59:19;2.80;;;2.60;;
18505;SDS011;9382;53.242;10.438;2023-08-07T04:01:45;2.90;;;2.37;;
18505;SDS011;9382;53.242;10.438;2023-08-07T04:04:12;2.57;;;2.33;;
18505;SDS011;9382;53.242;10.438;2023-08-07T04:06:39;3.47;;;2.60;;
18505;SDS011;9382;53.242;10.438;2023-08-07T04:09:05;2.83;;;2.30;;
18505;SDS011;9382;53.242;10.438;2023-08-07T04:11:36;2.80;;;2.50;;
18505;SDS011;9382;53.242;10.438;2023-08-07T04:14:03;2.60;;;2.40;;
18505;SDS011;9382;53.242;10.438;2023-08-07T04:16:30;4.27;;;2.93;;
18505;SDS011;9382;53.242;10.438;2023-08-07T04:18:57;3.67;;;2.10;;
18505;SDS011;9382;53.242;10.438;2023-08-07T04:21:24;2.47;;;2.27;;
18505;SDS011;9382;53.242;10.438;2023-08-07T04:23:51;4.43;;;2.50;;
18505;SDS011;9382;53.242;10.438;2023-08-07T04:26:17;2.30;;;2.10;;
18505;SDS011;9382;53.242;10.438;2023-08-07T04:28:45;3.67;;;2.20;;
18505;SDS011;9382;53.242;10.438;2023-08-07T04:31:12;2.73;;;2.37;;
18505;SDS011;9382;53.242;10.438;2023-08-07T04:33:39;2.50;;;2.30;;
18505;SDS011;9382;53.242;10.438;2023-08-07T04:36:06;2.80;;;2.20;;
18505;SDS011;9382;53.242;10.438;2023-08-07T04:38:32;2.50;;;2.30;;
18505;SDS011;9382;53.242;10.438;2023-08-07T04:40:59;2.73;;;2.27;;
18505;SDS011;9382;53.242;10.438;2023-08-07T04:43:26;2.37;;;2.10;;
18505;SDS011;9382;53.242;10.438;2023-08-07T04:45:54;3.67;;;2.53;;
18505;SDS011;9382;53.242;10.438;2023-08-07T04:48:21;2.87;;;2.20;;
18505;SDS011;9382;53.242;10.438;2023-08-07T04:50:50;3.07;;;2.20;;
18505;SDS011;9382;53.242;10.438;2023-08-07T04:53:17;2.80;;;2.00;;
18505;SDS011;9382;53.242;10.438;2023-08-07T04:55:44;2.03;;;1.93;;
18505;SDS011;9382;53.242;10.438;2023-08-07T04:58:11;2.17;;;2.00;;
18505;SDS011;9382;53.242;10.438;2023-08-07T05:00:37;2.83;;;2.20;;
18505;SDS011;9382;53.242;10.438;2023-08-07T05:03:05;2.27;;;2.00;;
18505;SDS011;9382;53.242;10.438;2023-08-07T05:05:32;1.90;;;1.80;;
18505;SDS011;9382;53.242;10.438;2023-08-07T05:07:59;2.30;;;2.10;;
18505;SDS011;9382;53.242;10.438;2023-08-07T05:10:26;3.17;;;2.43;;
18505;SDS011;9382;53.242;10.438;2023-08-07T05:12:52;2.30;;;2.10;;
18505;SDS011;9382;53.242;10.438;2023-08-07T05:15:20;3.20;;;2.13;;
18505;SDS011;9382;53.242;10.438;2023-08-07T05:17:47;2.20;;;2.10;;
18505;SDS011;9382;53.242;10.438;2023-08-07T05:20:16;2.20;;;2.00;;
18505;SDS011;9382;53.242;10.438;2023-08-07T05:22:43;4.23;;;2.30;;
18505;SDS011;9382;53.242;10.438;2023-08-07T05:25:09;3.10;;;2.10;;
18505;SDS011;9382;53.242;10.438;2023-08-07T05:27:40;2.70;;;2.40;;
18505;SDS011;9382;53.242;10.438;2023-08-07T05:30:07;5.33;;;2.33;;
18505;SDS011;9382;53.242;10.438;2023-08-07T05:32:34;5.97;;;2.63;;
18505;SDS011;9382;53.242;10.438;2023-08-07T05:35:02;2.70;;;2.30;;
18505;SDS011;9382;53.242;10.438;2023-08-07T05:37:31;3.73;;;2.30;;
18505;SDS011;9382;53.242;10.438;2023-08-07T05:39:58;2.70;;;2.10;;
18505;SDS011;9382;53.242;10.438;2023-08-07T05:42:24;3.30;;;2.10;;
18505;SDS011;9382;53.242;10.438;2023-08-07T05:44:51;2.60;;;2.30;;
18505;SDS011;9382;53.242;10.438;2023-08-07T05:47:18;2.40;;;2.20;;
18505;SDS011;9382;53.242;10.438;2023-08-07T05:49:45;2.30;;;2.10;;
18505;SDS011;9382;53.242;10.438;2023-08-07T05:52:12;2.20;;;2.10;;
18505;SDS011;9382;53.242;10.438;2023-08-07T05:54:42;4.87;;;2.40;;
18505;SDS011;9382;53.242;10.438;2023-08-07T05:57:09;3.30;;;2.20;;
18505;SDS011;9382;53.242;10.438;2023-08-07T05:59:36;4.03;;;2.47;;
18505;SDS011;9382;53.242;10.438;2023-08-07T06:02:05;2.87;;;2.10;;
18505;SDS011;9382;53.242;10.438;2023-08-07T06:04:32;2.20;;;2.00;;
18505;SDS011;9382;53.242;10.438;2023-08-07T06:06:59;2.23;;;1.83;;
18505;SDS011;9382;53.242;10.438;2023-08-07T06:09:26;2.30;;;2.10;;
18505;SDS011;9382;53.242;10.438;2023-08-07T06:11:55;2.53;;;2.30;;
18505;SDS011;9382;53.242;10.438;2023-08-07T06:14:22;3.07;;;1.80;;
18505;SDS011;9382;53.242;10.438;2023-08-07T06:16:50;2.40;;;2.00;;
18505;SDS011;9382;53.242;10.438;2023-08-07T06:19:17;2.73;;;2.40;;
18505;SDS011;9382;53.242;10.438;2023-08-07T06:21:45;4.90;;;2.10;;
18505;SDS011;9382;53.242;10.438;2023-08-07T06:24:11;6.00;;;2.40;;
18505;SDS011;9382;53.242;10.438;2023-08-07T06:26:38;3.00;;;2.10;;
18505;SDS011;9382;53.242;10.438;2023-08-07T06:29:06;3.40;;;2.17;;
18505;SDS011;9382;53.242;10.438;2023-08-07T06:31:33;3.90;;;2.00;;
18505;SDS011;9382;53.242;10.438;2023-08-07T06:34:00;4.63;;;2.40;;
18505;SDS011;9382;53.242;10.438;2023-08-07T06:36:27;3.13;;;1.83;;
18505;SDS011;9382;53.242;10.438;2023-08-07T06:38:54;2.80;;;1.80;;
18505;SDS011;9382;53.242;10.438;2023-08-07T06:41:20;2.17;;;1.70;;
18505;SDS011;9382;53.242;10.438;2023-08-07T06:43:47;2.50;;;1.80;;
18505;SDS011;9382;53.242;10.438;2023-08-07T06:46:16;2.90;;;2.03;;
18505;SDS011;9382;53.242;10.438;2023-08-07T06:48:43;4.00;;;2.10;;
18505;SDS011;9382;53.242;10.438;2023-08-07T06:51:10;3.73;;;2.00;;
18505;SDS011;9382;53.242;10.438;2023-08-07T06:53:36;3.13;;;2.10;;
18505;SDS011;9382;53.242;10.438;2023-08-07T06:56:03;3.20;;;1.93;;
18505;SDS011;9382;53.242;10.438;2023-08-07T06:58:30;2.43;;;1.80;;
18505;SDS011;9382;53.242;10.438;2023-08-07T07:00:57;2.33;;;1.90;;
18505;SDS011;9382;53.242;10.438;2023-08-07T07:03:25;4.20;;;1.93;;
18505;SDS011;9382;53.242;10.438;2023-08-07T07:05:51;3.33;;;2.03;;
18505;SDS011;9382;53.242;10.438;2023-08-07T07:08:18;2.63;;;1.90;;
18505;SDS011;9382;53.242;10.438;2023-08-07T07:10:45;3.13;;;2.30;;
18505;SDS011;9382;53.242;10.438;2023-08-07T07:13:12;4.63;;;1.80;;
18505;SDS011;9382;53.242;10.438;2023-08-07T07:15:38;2.23;;;1.90;;
18505;SDS011;9382;53.242;10.438;2023-08-07T07:18:05;2.87;;;2.00;;
18505;SDS011;9382;53.242;10.438;2023-08-07T07:20:33;5.00;;;2.27;;
18505;SDS011;9382;53.242;10.438;2023-08-07T07:23:00;2.00;;;1.90;;
18505;SDS011;9382;53.242;10.438;2023-08-07T07:25:27;5.50;;;2.10;;
18505;SDS011;9382;53.242;10.438;2023-08-07T07:27:53;3.13;;;2.20;;
18505;SDS011;9382;53.242;10.438;2023-08-07T07:30:20;2.60;;;2.10;;
18505;SDS011;9382;53.242;10.438;2023-08-07T07:32:49;6.70;;;2.33;;
18505;SDS011;9382;53.242;10.438;2023-08-07T07:35:16;2.77;;;1.97;;
18505;SDS011;9382;53.242;10.438;2023-08-07T07:37:44;2.87;;;2.10;;
18505;SDS011;9382;53.242;10.438;2023-08-07T07:40:11;6.60;;;2.30;;
18505;SDS011;9382;53.242;10.438;2023-08-07T07:42:38;4.27;;;1.87;;
18505;SDS011;9382;53.242;10.438;2023-08-07T07:45:05;5.33;;;2.63;;
18505;SDS011;9382;53.242;10.438;2023-08-07T07:47:32;5.63;;;2.20;;
18505;SDS011;9382;53.242;10.438;2023-08-07T07:50:05;3.40;;;2.33;;
18505;SDS011;9382;53.242;10.438;2023-08-07T07:52:33;6.60;;;2.83;;
18505;SDS011;9382;53.242;10.438;2023-08-07T07:55:01;6.50;;;2.87;;
18505;SDS011;9382;53.242;10.438;2023-08-07T07:57:28;4.07;;;2.40;;
18505;SDS011;9382;53.242;10.438;2023-08-07T07:59:55;5.20;;;2.70;;
18505;SDS011;9382;53.242;10.438;2023-08-07T08:02:22;6.17;;;2.60;;
18505;SDS011;9382;53.242;10.438;2023-08-07T08:04:49;3.93;;;2.50;;
18505;SDS011;9382;53.242;10.438;2023-08-07T08:07:16;4.07;;;2.70;;
18505;SDS011;9382;53.242;10.438;2023-08-07T08:09:43;6.63;;;3.00;;
18505;SDS011;9382;53.242;10.438;2023-08-07T08:12:11;6.57;;;2.70;;
18505;SDS011;9382;53.242;10.438;2023-08-07T08:14:38;7.50;;;2.60;;
18505;SDS011;9382;53.242;10.438;2023-08-07T08:17:05;6.20;;;2.73;;
18505;SDS011;9382;53.242;10.438;2023-08-07T08:19:32;4.13;;;2.70;;
18505;SDS011;9382;53.242;10.438;2023-08-07T08:21:59;8.37;;;2.57;;
18505;SDS011;9382;53.242;10.438;2023-08-07T08:24:25;6.90;;;2.70;;
18505;SDS011;9382;53.242;10.438;2023-08-07T08:26:52;5.10;;;2.87;;
18505;SDS011;9382;53.242;10.438;2023-08-07T08:29:21;6.53;;;3.20;;
18505;SDS011;9382;53.242;10.438;2023-08-07T08:31:47;8.13;;;3.33;;
18505;SDS011;9382;53.242;10.438;2023-08-07T08:34:14;5.60;;;2.63;;
18505;SDS011;9382;53.242;10.438;2023-08-07T08:36:41;7.47;;;3.17;;
18505;SDS011;9382;53.242;10.438;2023-08-07T08:39:07;6.97;;;3.07;;
18505;SDS011;9382;53.242;10.438;2023-08-07T08:41:34;5.17;;;2.70;;
18505;SDS011;9382;53.242;10.438;2023-08-07T08:44:01;5.47;;;2.47;;
18505;SDS011;9382;53.242;10.438;2023-08-07T08:46:32;6.53;;;2.53;;
18505;SDS011;9382;53.242;10.438;2023-08-07T08:49:00;6.20;;;2.57;;
18505;SDS011;9382;53.242;10.438;2023-08-07T08:51:29;4.10;;;2.50;;
18505;SDS011;9382;53.242;10.438;2023-08-07T08:53:57;5.07;;;2.60;;
18505;SDS011;9382;53.242;10.438;2023-08-07T08:56:27;9.30;;;3.07;;
18505;SDS011;9382;53.242;10.438;2023-08-07T08:58:54;5.07;;;2.57;;
18505;SDS011;9382;53.242;10.438;2023-08-07T09:01:22;4.63;;;2.70;;
18505;SDS011;9382;53.242;10.438;2023-08-07T09:03:53;5.07;;;2.53;;
18505;SDS011;9382;53.242;10.438;2023-08-07T09:06:22;5.27;;;2.63;;
18505;SDS011;9382;53.242;10.438;2023-08-07T09:08:49;6.20;;;2.97;;
18505;SDS011;9382;53.242;10.438;2023-08-07T09:11:17;4.93;;;2.90;;
18505;SDS011;9382;53.242;10.438;2023-08-07T09:13:45;4.73;;;2.60;;
18505;SDS011;9382;53.242;10.438;2023-08-07T09:16:15;7.57;;;3.07;;
18505;SDS011;9382;53.242;10.438;2023-08-07T09:18:43;6.30;;;2.33;;
18505;SDS011;9382;53.242;10.438;2023-08-07T09:21:11;5.47;;;2.70;;
18505;SDS011;9382;53.242;10.438;2023-08-07T09:23:41;9.83;;;3.17;;
18505;SDS011;9382;53.242;10.438;2023-08-07T09:26:08;5.80;;;2.70;;
18505;SDS011;9382;53.242;10.438;2023-08-07T09:28:37;3.73;;;2.27;;
18505;SDS011;9382;53.242;10.438;2023-08-07T09:31:05;4.63;;;2.67;;
18505;SDS011;9382;53.242;10.438;2023-08-07T09:33:33;5.70;;;2.40;;
18505;SDS011;9382;53.242;10.438;2023-08-07T09:36:01;4.67;;;2.50;;
18505;SDS011;9382;53.242;10.438;2023-08-07T09:38:30;4.13;;;2.30;;
18505;SDS011;9382;53.242;10.438;2023-08-07T09:40:58;4.90;;;2.30;;
18505;SDS011;9382;53.242;10.438;2023-08-07T09:43:25;3.50;;;2.00;;
18505;SDS011;9382;53.242;10.438;2023-08-07T09:45:51;5.10;;;2.33;;
18505;SDS011;9382;53.242;10.438;2023-08-07T09:48:22;4.50;;;2.40;;
18505;SDS011;9382;53.242;10.438;2023-08-07T09:50:50;5.40;;;2.60;;
18505;SDS011;9382;53.242;10.438;2023-08-07T09:53:17;3.90;;;2.50;;
18505;SDS011;9382;53.242;10.438;2023-08-07T09:55:45;4.30;;;2.00;;
18505;SDS011;9382;53.242;10.438;2023-08-07T09:58:12;4.03;;;1.90;;
18505;SDS011;9382;53.242;10.438;2023-08-07T10:00:39;6.30;;;1.90;;
18505;SDS011;9382;53.242;10.438;2023-08-07T10:03:07;4.40;;;2.00;;
18505;SDS011;9382;53.242;10.438;2023-08-07T10:05:34;4.13;;;1.90;;
18505;SDS011;9382;53.242;10.438;2023-08-07T10:08:01;3.70;;;1.90;;
18505;SDS011;9382;53.242;10.438;2023-08-07T10:10:29;3.97;;;2.23;;
18505;SDS011;9382;53.242;10.438;2023-08-07T10:13:00;5.77;;;2.43;;
18505;SDS011;9382;53.242;10.438;2023-08-07T10:15:28;3.33;;;1.70;;
18505;SDS011;9382;53.242;10.438;2023-08-07T10:17:56;5.33;;;1.90;;
18505;SDS011;9382;53.242;10.438;2023-08-07T10:20:24;3.43;;;1.70;;
18505;SDS011;9382;53.242;10.438;2023-08-07T10:22:52;3.70;;;2.13;;
18505;SDS011;9382;53.242;10.438;2023-08-07T10:25:22;3.10;;;2.00;;
18505;SDS011;9382;53.242;10.438;2023-08-07T10:27:50;4.43;;;1.87;;
18505;SDS011;9382;53.242;10.438;2023-08-07T10:30:21;3.27;;;2.07;;
18505;SDS011;9382;53.242;10.438;2023-08-07T10:32:49;6.10;;;1.80;;
18505;SDS011;9382;53.242;10.438;2023-08-07T10:35:23;10.03;;;2.30;;
18505;SDS011;9382;53.242;10.438;2023-08-07T10:37:51;2.83;;;1.80;;
18505;SDS011;9382;53.242;10.438;2023-08-07T10:40:18;10.93;;;2.30;;
18505;SDS011;9382;53.242;10.438;2023-08-07T10:45:40;3.43;;;2.00;;
18505;SDS011;9382;53.242;10.438;2023-08-07T10:48:07;7.73;;;2.40;;
18505;SDS011;9382;53.242;10.438;2023-08-07T10:50:46;4.13;;;2.37;;
18505;SDS011;9382;53.242;10.438;2023-08-07T10:53:19;5.07;;;2.30;;
18505;SDS011;9382;53.242;10.438;2023-08-07T10:55:47;6.17;;;2.10;;
18505;SDS011;9382;53.242;10.438;2023-08-07T10:58:21;5.07;;;2.13;;
18505;SDS011;9382;53.242;10.438;2023-08-07T11:00:55;4.73;;;2.73;;
18505;SDS011;9382;53.242;10.438;2023-08-07T11:03:44;5.00;;;2.10;;
18505;SDS011;9382;53.242;10.438;2023-08-07T11:06:11;5.87;;;2.30;;
18505;SDS011;9382;53.242;10.438;2023-08-07T11:08:38;5.37;;;2.43;;
18505;SDS011;9382;53.242;10.438;2023-08-07T11:11:07;5.50;;;1.90;;
18505;SDS011;9382;53.242;10.438;2023-08-07T11:13:34;3.30;;;2.00;;
18505;SDS011;9382;53.242;10.438;2023-08-07T11:18:30;3.27;;;1.87;;
18505;SDS011;9382;53.242;10.438;2023-08-07T11:20:58;5.23;;;2.20;;
18505;SDS011;9382;53.242;10.438;2023-08-07T11:23:26;5.50;;;1.97;;
18505;SDS011;9382;53.242;10.438;2023-08-07T11:25:54;4.57;;;2.00;;
18505;SDS011;9382;53.242;10.438;2023-08-07T11:28:21;3.10;;;1.90;;
18505;SDS011;9382;53.242;10.438;2023-08-07T11:30:49;5.43;;;2.07;;
18505;SDS011;9382;53.242;10.438;2023-08-07T11:33:18;6.27;;;2.10;;
18505;SDS011;9382;53.242;10.438;2023-08-07T11:35:45;6.03;;;2.27;;
18505;SDS011;9382;53.242;10.438;2023-08-07T11:38:12;6.33;;;1.77;;
18505;SDS011;9382;53.242;10.438;2023-08-07T11:40:41;5.93;;;2.10;;
18505;SDS011;9382;53.242;10.438;2023-08-07T11:43:08;3.40;;;2.00;;
18505;SDS011;9382;53.242;10.438;2023-08-07T11:45:35;3.87;;;1.60;;
18505;SDS011;9382;53.242;10.438;2023-08-07T11:48:02;5.20;;;2.00;;
18505;SDS011;9382;53.242;10.438;2023-08-07T11:50:30;4.73;;;1.93;;
18505;SDS011;9382;53.242;10.438;2023-08-07T11:52:59;4.43;;;2.20;;
18505;SDS011;9382;53.242;10.438;2023-08-07T11:55:27;6.17;;;2.13;;
18505;SDS011;9382;53.242;10.438;2023-08-07T11:57:55;4.40;;;1.70;;
18505;SDS011;9382;53.242;10.438;2023-08-07T12:00:24;4.53;;;1.70;;
18505;SDS011;9382;53.242;10.438;2023-08-07T12:02:52;5.03;;;2.00;;
18505;SDS011;9382;53.242;10.438;2023-08-07T12:05:19;5.13;;;1.90;;
18505;SDS011;9382;53.242;10.438;2023-08-07T12:07:48;4.27;;;1.90;;
18505;SDS011;9382;53.242;10.438;2023-08-07T12:10:15;2.97;;;1.80;;
18505;SDS011;9382;53.242;10.438;2023-08-07T12:12:42;4.03;;;1.77;;
18505;SDS011;9382;53.242;10.438;2023-08-07T12:15:09;1.70;;;1.60;;
18505;SDS011;9382;53.242;10.438;2023-08-07T12:17:36;2.10;;;1.60;;
18505;SDS011;9382;53.242;10.438;2023-08-07T12:20:03;4.80;;;1.47;;
18505;SDS011;9382;53.242;10.438;2023-08-07T12:22:32;3.33;;;1.60;;
18505;SDS011;9382;53.242;10.438;2023-08-07T12:25:03;2.97;;;1.40;;
18505;SDS011;9382;53.242;10.438;2023-08-07T12:27:30;3.53;;;1.77;;
18505;SDS011;9382;53.242;10.438;2023-08-07T12:29:57;2.20;;;1.50;;
18505;SDS011;9382;53.242;10.438;2023-08-07T12:32:23;5.43;;;1.87;;
18505;SDS011;9382;53.242;10.438;2023-08-07T12:34:50;2.80;;;1.60;;
18505;SDS011;9382;53.242;10.438;2023-08-07T12:37:18;4.93;;;1.50;;
18505;SDS011;9382;53.242;10.438;2023-08-07T12:39:45;3.43;;;1.63;;
18505;SDS011;9382;53.242;10.438;2023-08-07T12:42:13;1.97;;;1.50;;
18505;SDS011;9382;53.242;10.438;2023-08-07T12:44:40;4.33;;;1.73;;
18505;SDS011;9382;53.242;10.438;2023-08-07T12:47:08;3.40;;;1.73;;
18505;SDS011;9382;53.242;10.438;2023-08-07T12:49:35;2.00;;;1.43;;
18505;SDS011;9382;53.242;10.438;2023-08-07T12:52:02;4.03;;;1.80;;
18505;SDS011;9382;53.242;10.438;2023-08-07T12:54:29;2.77;;;2.00;;
18505;SDS011;9382;53.242;10.438;2023-08-07T12:56:55;4.10;;;1.40;;
18505;SDS011;9382;53.242;10.438;2023-08-07T12:59:24;1.80;;;1.60;;
18505;SDS011;9382;53.242;10.438;2023-08-07T13:01:51;4.07;;;2.00;;
18505;SDS011;9382;53.242;10.438;2023-08-07T13:04:18;2.27;;;1.73;;
18505;SDS011;9382;53.242;10.438;2023-08-07T13:06:46;3.63;;;1.90;;
18505;SDS011;9382;53.242;10.438;2023-08-07T13:09:14;2.97;;;1.67;;
18505;SDS011;9382;53.242;10.438;2023-08-07T13:11:41;6.67;;;1.83;;
18505;SDS011;9382;53.242;10.438;2023-08-07T13:14:08;2.60;;;1.53;;
18505;SDS011;9382;53.242;10.438;2023-08-07T13:16:36;3.07;;;1.77;;
18505;SDS011;9382;53.242;10.438;2023-08-07T13:19:02;4.60;;;1.63;;
18505;SDS011;9382;53.242;10.438;2023-08-07T13:21:29;5.37;;;1.77;;
18505;SDS011;9382;53.242;10.438;2023-08-07T13:23:56;3.83;;;1.67;;
18505;SDS011;9382;53.242;10.438;2023-08-07T13:26:23;3.93;;;1.80;;
18505;SDS011;9382;53.242;10.438;2023-08-07T13:28:49;3.63;;;1.50;;
18505;SDS011;9382;53.242;10.438;2023-08-07T13:31:16;6.00;;;2.40;;
18505;SDS011;9382;53.242;10.438;2023-08-07T13:33:44;6.27;;;1.80;;
18505;SDS011;9382;53.242;10.438;2023-08-07T13:36:11;4.53;;;2.10;;
18505;SDS011;9382;53.242;10.438;2023-08-07T13:38:38;4.23;;;1.63;;
18505;SDS011;9382;53.242;10.438;2023-08-07T13:41:04;3.67;;;2.03;;
18505;SDS011;9382;53.242;10.438;2023-08-07T13:43:31;3.03;;;1.60;;
18505;SDS011;9382;53.242;10.438;2023-08-07T13:45:58;3.97;;;1.80;;
18505;SDS011;9382;53.242;10.438;2023-08-07T13:48:25;2.77;;;1.87;;
18505;SDS011;9382;53.242;10.438;2023-08-07T13:50:54;5.23;;;2.03;;
18505;SDS011;9382;53.242;10.438;2023-08-07T13:53:21;2.53;;;1.73;;
18505;SDS011;9382;53.242;10.438;2023-08-07T13:55:49;2.70;;;1.70;;
18505;SDS011;9382;53.242;10.438;2023-08-07T13:58:15;4.67;;;1.77;;
18505;SDS011;9382;53.242;10.438;2023-08-07T14:00:42;4.97;;;1.67;;
18505;SDS011;9382;53.242;10.438;2023-08-07T14:03:09;3.20;;;1.60;;
18505;SDS011;9382;53.242;10.438;2023-08-07T14:05:37;2.57;;;1.60;;
18505;SDS011;9382;53.242;10.438;2023-08-07T14:08:05;2.47;;;1.90;;
18505;SDS011;9382;53.242;10.438;2023-08-07T14:10:34;4.73;;;2.00;;
18505;SDS011;9382;53.242;10.438;2023-08-07T14:13:01;4.77;;;2.40;;
18505;SDS011;9382;53.242;10.438;2023-08-07T14:15:28;3.80;;;2.23;;
18505;SDS011;9382;53.242;10.438;2023-08-07T14:17:55;3.87;;;2.37;;
18505;SDS011;9382;53.242;10.438;2023-08-07T14:20:22;7.37;;;2.27;;
18505;SDS011;9382;53.242;10.438;2023-08-07T14:22:49;3.73;;;2.10;;
18505;SDS011;9382;53.242;10.438;2023-08-07T14:25:17;6.80;;;2.33;;
18505;SDS011;9382;53.242;10.438;2023-08-07T14:27:46;6.83;;;2.23;;
18505;SDS011;9382;53.242;10.438;2023-08-07T14:30:13;3.83;;;2.30;;
18505;SDS011;9382;53.242;10.438;2023-08-07T14:32:40;6.20;;;2.30;;
18505;SDS011;9382;53.242;10.438;2023-08-07T14:35:07;7.10;;;2.40;;
18505;SDS011;9382;53.242;10.438;2023-08-07T14:37:34;10.30;;;2.63;;
18505;SDS011;9382;53.242;10.438;2023-08-07T14:40:01;6.10;;;2.30;;
18505;SDS011;9382;53.242;10.438;2023-08-07T14:42:30;4.67;;;2.30;;
18505;SDS011;9382;53.242;10.438;2023-08-07T14:44:56;6.20;;;2.70;;
18505;SDS011;9382;53.242;10.438;2023-08-07T14:47:23;4.53;;;2.10;;
18505;SDS011;9382;53.242;10.438;2023-08-07T14:49:50;4.93;;;2.40;;
18505;SDS011;9382;53.242;10.438;2023-08-07T14:52:17;5.07;;;2.20;;
18505;SDS011;9382;53.242;10.438;2023-08-07T14:54:44;6.47;;;2.37;;